Time;durP1;ratioP1;P1;durP2;ratioP2;P2;SDS_P1;SDS_P2;PMS_P1;PMS_P2;Temp;Humidity;BMP_temperature;BMP_pressure;BME280_temperature;BME280_humidity;BME280_pressure;Samples;Min_cycle;Max_cycle;Signal;HPM_P1;HPM_P2
2022/06/08 00:01:25;;;;;;;3.60;3.30;;;;;;;;;;5086739;28;20207;-48
2022/06/08 00:03:54;;;;;;;3.93;3.47;;;;;;;;;;5084643;28;20234;-46
2022/06/08 00:06:20;;;;;;;4.00;3.67;;;;;;;;;;5084577;28;20195;-46
2022/06/08 00:08:46;;;;;;;3.80;3.50;;;;;;;;;;5089269;28;20262;-47
2022/06/08 00:11:12;;;;;;;4.33;3.50;;;;;;;;;;5085301;28;20549;-47
2022/06/08 00:13:40;;;;;;;4.10;3.70;;;;;;;;;;5088765;28;20680;-48
2022/06/08 00:16:07;;;;;;;4.90;3.47;;;;;;;;;;5093259;28;20246;-46
2022/06/08 00:18:33;;;;;;;3.87;3.57;;;;;;;;;;5088157;28;20183;-46
2022/06/08 00:20:59;;;;;;;3.60;3.30;;;;;;;;;;5087187;28;20229;-46
2022/06/08 00:23:25;;;;;;;3.90;3.60;;;;;;;;;;5089384;28;20522;-47
2022/06/08 00:25:51;;;;;;;3.83;3.53;;;;;;;;;;5070573;28;20639;-47
2022/06/08 00:28:18;;;;;;;3.70;3.40;;;;;;;;;;5066903;28;20199;-47
2022/06/08 00:30:44;;;;;;;4.13;3.83;;;;;;;;;;5068498;28;20510;-47
2022/06/08 00:33:10;;;;;;;6.13;4.10;;;;;;;;;;5068559;28;20795;-47
2022/06/08 00:35:37;;;;;;;5.30;3.80;;;;;;;;;;5064089;28;20180;-47
2022/06/08 00:38:03;;;;;;;4.20;3.90;;;;;;;;;;5068514;28;20211;-46
2022/06/08 00:40:44;;;;;;;4.40;4.10;;;;;;;;;;5067208;28;20205;-46
2022/06/08 00:43:10;;;;;;;4.30;4.00;;;;;;;;;;5066079;28;20211;-47
2022/06/08 00:45:37;;;;;;;4.00;3.47;;;;;;;;;;5065622;28;20168;-46
2022/06/08 00:48:04;;;;;;;3.97;3.67;;;;;;;;;;5068533;28;20188;-47
2022/06/08 00:50:32;;;;;;;4.00;3.70;;;;;;;;;;5066704;28;20209;-47
2022/06/08 00:52:59;;;;;;;4.73;3.80;;;;;;;;;;5064546;28;20267;-47
2022/06/08 00:55:26;;;;;;;4.07;3.77;;;;;;;;;;5048758;28;20198;-48
2022/06/08 00:57:52;;;;;;;4.00;3.70;;;;;;;;;;5066540;28;20270;-46
2022/06/08 01:00:20;;;;;;;4.03;3.63;;;;;;;;;;5067515;28;20531;-47
2022/06/08 01:02:46;;;;;;;4.43;4.13;;;;;;;;;;5060725;28;20173;-47
2022/06/08 01:05:17;;;;;;;4.13;3.80;;;;;;;;;;5064869;28;20204;-47
2022/06/08 01:07:43;;;;;;;4.27;3.97;;;;;;;;;;5064258;28;20647;-47
2022/06/08 01:10:13;;;;;;;4.20;3.90;;;;;;;;;;5055441;28;20712;-47
2022/06/08 01:12:39;;;;;;;4.13;3.83;;;;;;;;;;5061021;28;20203;-47
2022/06/08 01:15:06;;;;;;;4.10;3.70;;;;;;;;;;5063761;28;20235;-47
2022/06/08 01:17:32;;;;;;;4.10;3.80;;;;;;;;;;5049966;28;20325;-46
2022/06/08 01:19:58;;;;;;;4.30;4.00;;;;;;;;;;5068979;28;20295;-47
2022/06/08 01:22:24;;;;;;;4.73;4.03;;;;;;;;;;5063525;28;20176;-47
2022/06/08 01:24:51;;;;;;;4.03;3.73;;;;;;;;;;5067285;28;20228;-46
2022/06/08 01:27:23;;;;;;;4.67;4.27;;;;;;;;;;5066713;28;20940;-47
2022/06/08 01:30:08;;;;;;;4.63;4.30;;;;;;;;;;5064932;28;20192;-46
2022/06/08 01:32:37;;;;;;;4.50;4.10;;;;;;;;;;5065302;28;20240;-47
2022/06/08 01:35:27;;;;;;;4.43;4.03;;;;;;;;;;5066531;28;22048;-47
2022/06/08 01:37:54;;;;;;;4.33;3.97;;;;;;;;;;5056627;28;20332;-46
2022/06/08 01:40:44;;;;;;;4.00;3.63;;;;;;;;;;5074123;28;20204;-47
2022/06/08 01:43:18;;;;;;;4.50;4.10;;;;;;;;;;5065124;28;20180;-47
2022/06/08 01:45:56;;;;;;;4.10;3.80;;;;;;;;;;5048344;28;20185;-46
2022/06/08 01:48:27;;;;;;;3.90;3.60;;;;;;;;;;5065782;28;20225;-46
2022/06/08 01:51:12;;;;;;;6.00;4.13;;;;;;;;;;5066945;28;20200;-46
2022/06/08 01:53:49;;;;;;;3.87;3.60;;;;;;;;;;5066105;28;20192;-46
2022/06/08 01:56:21;;;;;;;4.23;3.83;;;;;;;;;;5064753;28;20180;-48
2022/06/08 01:58:48;;;;;;;5.27;4.70;;;;;;;;;;5063715;28;20200;-46
2022/06/08 02:01:17;;;;;;;4.00;3.70;;;;;;;;;;5067037;28;20283;-46
2022/06/08 02:04:12;;;;;;;3.83;3.57;;;;;;;;;;5064473;28;20308;-47
2022/06/08 02:06:53;;;;;;;4.10;3.80;;;;;;;;;;5043970;28;20194;-47
2022/06/08 02:09:19;;;;;;;4.10;3.80;;;;;;;;;;5065078;28;20189;-47
2022/06/08 02:11:48;;;;;;;3.77;3.47;;;;;;;;;;5068119;28;20212;-47
2022/06/08 02:14:18;;;;;;;3.63;3.43;;;;;;;;;;5066051;28;20218;-48
2022/06/08 02:16:50;;;;;;;4.10;3.73;;;;;;;;;;5065770;28;20180;-48
2022/06/08 02:19:29;;;;;;;5.83;3.43;;;;;;;;;;5065164;28;20234;-48
2022/06/08 02:21:57;;;;;;;4.50;3.67;;;;;;;;;;5061933;28;20533;-48
2022/06/08 02:24:33;;;;;;;3.90;3.60;;;;;;;;;;5066546;28;20226;-48
2022/06/08 02:27:02;;;;;;;3.80;3.50;;;;;;;;;;5079775;28;20179;-49
2022/06/08 02:29:43;;;;;;;4.37;4.00;;;;;;;;;;5091750;28;20205;-47
2022/06/08 02:34:28;;;;;;;3.97;3.67;;;;;;;;;;5089774;28;20168;-48
2022/06/08 02:34:59;;;;;;;4.07;3.77;;;;;;;;;;5085893;28;20180;-50
2022/06/08 02:37:28;;;;;;;4.00;3.70;;;;;;;;;;5087143;28;20229;-48
2022/06/08 02:39:58;;;;;;;3.70;3.50;;;;;;;;;;5094977;28;20657;-48
2022/06/08 02:42:26;;;;;;;3.67;3.33;;;;;;;;;;5089965;28;20502;-49
2022/06/08 02:44:56;;;;;;;3.80;3.50;;;;;;;;;;5090270;28;20180;-49
2022/06/08 02:47:29;;;;;;;5.97;5.57;;;;;;;;;;5071794;28;20634;-48
2022/06/08 02:49:56;;;;;;;3.57;3.27;;;;;;;;;;5090394;28;20220;-49
2022/06/08 02:52:23;;;;;;;3.77;3.47;;;;;;;;;;5085145;28;20649;-50
2022/06/08 02:54:50;;;;;;;4.00;3.70;;;;;;;;;;5072541;28;20187;-49
2022/06/08 02:57:28;;;;;;;4.20;3.87;;;;;;;;;;5088671;28;20176;-49
2022/06/08 03:00:15;;;;;;;3.37;3.07;;;;;;;;;;5089640;28;20199;-50
2022/06/08 03:02:41;;;;;;;3.83;3.53;;;;;;;;;;5088665;28;20582;-49
2022/06/08 03:05:08;;;;;;;4.37;4.07;;;;;;;;;;5086046;28;20229;-48
2022/06/08 03:07:57;;;;;;;4.17;3.87;;;;;;;;;;5088575;28;20222;-51
2022/06/08 03:10:24;;;;;;;3.67;3.37;;;;;;;;;;5061818;28;20596;-48
2022/06/08 03:13:08;;;;;;;3.60;3.30;;;;;;;;;;5089704;28;20834;-49
2022/06/08 03:15:34;;;;;;;5.43;3.87;;;;;;;;;;5086429;28;20260;-48
2022/06/08 03:18:00;;;;;;;3.70;3.37;;;;;;;;;;5090954;28;20638;-48
2022/06/08 03:20:27;;;;;;;3.87;3.57;;;;;;;;;;5085239;28;20222;-48
2022/06/08 03:22:54;;;;;;;4.03;3.73;;;;;;;;;;5088618;28;20200;-48
2022/06/08 03:25:20;;;;;;;4.07;3.77;;;;;;;;;;5089828;27;20297;-47
2022/06/08 03:27:46;;;;;;;4.27;3.97;;;;;;;;;;5090661;28;20622;-47
2022/06/08 03:30:13;;;;;;;4.53;4.20;;;;;;;;;;5086803;28;20180;-49
2022/06/08 03:32:40;;;;;;;4.10;3.70;;;;;;;;;;5087556;28;20700;-48
2022/06/08 03:35:06;;;;;;;3.47;3.20;;;;;;;;;;5087045;28;20223;-48
2022/06/08 03:37:32;;;;;;;3.90;3.60;;;;;;;;;;5087883;28;20183;-47
2022/06/08 03:39:58;;;;;;;3.90;3.60;;;;;;;;;;5087634;28;20662;-46
2022/06/08 03:42:24;;;;;;;3.80;3.50;;;;;;;;;;5088171;28;20528;-46
2022/06/08 03:44:50;;;;;;;3.97;3.67;;;;;;;;;;5089564;28;20598;-47
2022/06/08 03:47:19;;;;;;;3.37;3.07;;;;;;;;;;5088374;28;20641;-47
2022/06/08 03:49:45;;;;;;;3.23;2.93;;;;;;;;;;5089101;28;20205;-46
2022/06/08 03:52:15;;;;;;;4.70;3.37;;;;;;;;;;5087841;28;20215;-47
2022/06/08 03:54:43;;;;;;;3.10;2.90;;;;;;;;;;5087835;28;20184;-46
2022/06/08 03:57:10;;;;;;;3.57;3.00;;;;;;;;;;5091262;28;20206;-46
2022/06/08 03:59:40;;;;;;;3.97;3.53;;;;;;;;;;5080070;28;20191;-46
2022/06/08 04:02:06;;;;;;;3.63;3.33;;;;;;;;;;5088476;28;20659;-44
2022/06/08 04:04:33;;;;;;;3.13;2.93;;;;;;;;;;5090879;28;20195;-46
2022/06/08 04:06:59;;;;;;;4.03;3.60;;;;;;;;;;5088869;28;20655;-45
2022/06/08 04:09:25;;;;;;;3.70;3.40;;;;;;;;;;5089236;28;20583;-46
2022/06/08 04:11:59;;;;;;;3.37;3.17;;;;;;;;;;5090145;28;20625;-46
2022/06/08 04:14:25;;;;;;;4.27;3.37;;;;;;;;;;5088957;28;20308;-46
2022/06/08 04:16:51;;;;;;;3.20;2.90;;;;;;;;;;5088057;28;20176;-46
2022/06/08 04:19:18;;;;;;;3.20;2.90;;;;;;;;;;5089018;28;20759;-47
2022/06/08 04:21:45;;;;;;;3.67;3.37;;;;;;;;;;5089751;28;20567;-46
2022/06/08 04:27:40;;;;;;;3.03;2.83;;;;;;;;;;5084411;28;20213;-48
2022/06/08 04:30:07;;;;;;;4.63;2.73;;;;;;;;;;5096186;28;20199;-46
2022/06/08 04:32:33;;;;;;;3.33;3.03;;;;;;;;;;5086223;28;20210;-46
2022/06/08 04:34:59;;;;;;;3.00;2.70;;;;;;;;;;5103416;28;20190;-46
2022/06/08 04:37:27;;;;;;;3.30;3.00;;;;;;;;;;5097738;28;20270;-47
2022/06/08 04:39:53;;;;;;;3.00;2.73;;;;;;;;;;5095041;28;20594;-47
2022/06/08 04:42:19;;;;;;;2.90;2.70;;;;;;;;;;5089817;28;20195;-47
2022/06/08 04:44:46;;;;;;;3.90;2.77;;;;;;;;;;5081270;28;20176;-46
2022/06/08 04:47:12;;;;;;;4.03;3.10;;;;;;;;;;5083950;28;20656;-47
2022/06/08 04:49:38;;;;;;;2.90;2.60;;;;;;;;;;5084465;28;20182;-46
2022/06/08 04:52:05;;;;;;;3.97;3.67;;;;;;;;;;5086995;28;20236;-46
2022/06/08 04:54:32;;;;;;;3.10;2.53;;;;;;;;;;5085293;28;20180;-46
2022/06/08 04:57:00;;;;;;;2.90;2.60;;;;;;;;;;5087811;28;20175;-47
2022/06/08 04:59:27;;;;;;;3.33;3.07;;;;;;;;;;5086890;28;20604;-46
2022/06/08 05:01:53;;;;;;;2.97;2.77;;;;;;;;;;5090423;28;20159;-48
2022/06/08 05:04:19;;;;;;;3.60;3.30;;;;;;;;;;5094618;28;20669;-46
2022/06/08 05:06:47;;;;;;;3.30;3.00;;;;;;;;;;5089096;28;20641;-46
2022/06/08 05:09:14;;;;;;;3.30;3.00;;;;;;;;;;5089914;28;20184;-47
2022/06/08 05:11:40;;;;;;;2.67;2.47;;;;;;;;;;5063901;28;20271;-47
2022/06/08 05:14:06;;;;;;;4.97;2.60;;;;;;;;;;5062782;28;20278;-46
2022/06/08 05:16:32;;;;;;;5.07;3.23;;;;;;;;;;5089428;28;20536;-46
2022/06/08 05:18:58;;;;;;;3.20;2.90;;;;;;;;;;5088229;28;20179;-46
2022/06/08 05:21:32;;;;;;;2.80;2.60;;;;;;;;;;5079477;28;20670;-46
2022/06/08 05:23:59;;;;;;;2.70;2.50;;;;;;;;;;5093040;28;20613;-46
2022/06/08 05:26:25;;;;;;;3.27;2.97;;;;;;;;;;5099935;28;20175;-46
2022/06/08 05:28:57;;;;;;;4.30;2.93;;;;;;;;;;5085389;28;20280;-47
2022/06/08 05:31:23;;;;;;;3.67;2.67;;;;;;;;;;5082157;28;20170;-46
2022/06/08 05:33:49;;;;;;;2.70;2.50;;;;;;;;;;5086584;28;20637;-46
2022/06/08 05:36:16;;;;;;;3.13;2.93;;;;;;;;;;5089396;28;20170;-47
2022/06/08 05:38:42;;;;;;;2.83;2.43;;;;;;;;;;5087587;28;20175;-46
2022/06/08 05:41:08;;;;;;;2.67;2.47;;;;;;;;;;5085548;28;20208;-48
2022/06/08 05:43:34;;;;;;;3.63;2.60;;;;;;;;;;5087181;28;20179;-49
2022/06/08 05:46:00;;;;;;;3.10;2.50;;;;;;;;;;5079489;28;20637;-48
2022/06/08 05:48:27;;;;;;;3.10;2.50;;;;;;;;;;5074640;28;20322;-47
2022/06/08 05:50:54;;;;;;;4.13;2.87;;;;;;;;;;5088820;28;20679;-46
2022/06/08 05:53:20;;;;;;;2.73;2.20;;;;;;;;;;5080750;28;20198;-47
2022/06/08 05:55:46;;;;;;;2.53;2.33;;;;;;;;;;5083169;28;20203;-48
2022/06/08 05:58:12;;;;;;;2.50;2.30;;;;;;;;;;5088464;28;20175;-47
2022/06/08 06:00:39;;;;;;;2.57;2.37;;;;;;;;;;5086866;28;20245;-46
2022/06/08 06:03:07;;;;;;;3.23;2.20;;;;;;;;;;5066646;28;20182;-46
2022/06/08 06:05:34;;;;;;;2.47;2.27;;;;;;;;;;5091949;28;20181;-46
2022/06/08 06:08:00;;;;;;;4.37;2.20;;;;;;;;;;5092069;28;20200;-47
2022/06/08 06:10:28;;;;;;;2.80;2.50;;;;;;;;;;5092329;28;20603;-46
2022/06/08 06:12:54;;;;;;;3.10;2.80;;;;;;;;;;5092429;28;20563;-46
2022/06/08 06:15:21;;;;;;;3.07;2.10;;;;;;;;;;5072439;28;20622;-46
2022/06/08 06:17:47;;;;;;;3.03;2.27;;;;;;;;;;5096858;28;20673;-45
2022/06/08 06:20:13;;;;;;;2.70;2.50;;;;;;;;;;5093071;28;20182;-46
2022/06/08 06:22:39;;;;;;;2.57;2.10;;;;;;;;;;5093029;28;20181;-47
2022/06/08 06:25:07;;;;;;;2.30;2.20;;;;;;;;;;5079937;28;20191;-46
2022/06/08 06:27:39;;;;;;;2.60;2.40;;;;;;;;;;5092316;28;20164;-47
2022/06/08 06:30:06;;;;;;;1.83;1.73;;;;;;;;;;5070677;28;20188;-47
2022/06/08 06:32:36;;;;;;;2.27;2.13;;;;;;;;;;5068735;28;20711;-47
2022/06/08 06:35:03;;;;;;;2.93;2.30;;;;;;;;;;5073860;28;20622;-47
2022/06/08 06:37:29;;;;;;;2.33;2.20;;;;;;;;;;5062807;28;20215;-47
2022/06/08 06:39:56;;;;;;;2.90;2.63;;;;;;;;;;5070101;28;20196;-46
2022/06/08 06:42:27;;;;;;;2.67;2.47;;;;;;;;;;5051837;28;20341;-47
2022/06/08 06:44:53;;;;;;;2.80;2.60;;;;;;;;;;5064348;28;20654;-47
2022/06/08 06:47:20;;;;;;;2.10;1.90;;;;;;;;;;5079059;28;20222;-48
2022/06/08 06:49:46;;;;;;;4.90;2.37;;;;;;;;;;5063200;28;20260;-48
2022/06/08 06:52:13;;;;;;;2.33;2.13;;;;;;;;;;5069284;28;20590;-50
2022/06/08 06:54:40;;;;;;;4.53;1.93;;;;;;;;;;5075471;28;20184;-49
2022/06/08 06:57:06;;;;;;;2.67;2.47;;;;;;;;;;5051915;28;20271;-48
2022/06/08 06:59:32;;;;;;;2.40;2.20;;;;;;;;;;5070328;28;20180;-48
2022/06/08 07:01:58;;;;;;;3.55;2.20;;;;;;;;;;5066108;28;20966;-50
2022/06/08 07:04:25;;;;;;;2.27;2.07;;;;;;;;;;5071376;28;20489;-48
2022/06/08 07:06:51;;;;;;;2.07;1.97;;;;;;;;;;5068857;28;20183;-48
2022/06/08 07:09:17;;;;;;;2.80;2.10;;;;;;;;;;5068298;28;20208;-48
2022/06/08 07:11:43;;;;;;;2.40;2.20;;;;;;;;;;5072340;28;20263;-48
2022/06/08 07:14:11;;;;;;;2.40;2.07;;;;;;;;;;5066724;28;20183;-49
2022/06/08 07:16:37;;;;;;;2.10;1.90;;;;;;;;;;5064249;28;20181;-49
2022/06/08 07:19:05;;;;;;;2.13;2.00;;;;;;;;;;5066793;28;20172;-49
2022/06/08 07:21:31;;;;;;;2.20;2.10;;;;;;;;;;5069856;28;20263;-49
2022/06/08 07:23:57;;;;;;;2.80;2.00;;;;;;;;;;5068587;28;20199;-50
2022/06/08 07:26:28;;;;;;;4.00;2.40;;;;;;;;;;5065606;28;20203;-48
2022/06/08 07:28:54;;;;;;;2.30;2.10;;;;;;;;;;5080160;28;20253;-48
2022/06/08 07:31:21;;;;;;;2.73;2.17;;;;;;;;;;5088027;28;20183;-49
2022/06/08 07:33:47;;;;;;;4.67;1.83;;;;;;;;;;5089089;28;20553;-48
2022/06/08 07:36:13;;;;;;;2.00;1.80;;;;;;;;;;5089016;28;20176;-47
2022/06/08 07:38:40;;;;;;;4.43;2.10;;;;;;;;;;5087897;28;20696;-49
2022/06/08 07:41:06;;;;;;;2.17;2.07;;;;;;;;;;5087172;28;20691;-48
2022/06/08 07:43:33;;;;;;;2.47;2.00;;;;;;;;;;5068245;28;20168;-49
2022/06/08 07:45:59;;;;;;;2.00;1.90;;;;;;;;;;5103717;27;20236;-48
2022/06/08 07:51:10;;;;;;;3.20;2.00;;;;;;;;;;5113028;27;20221;-48
2022/06/08 07:53:36;;;;;;;3.67;1.80;;;;;;;;;;5108813;28;20267;-48
2022/06/08 07:56:02;;;;;;;2.73;1.87;;;;;;;;;;5109397;27;20214;-48
2022/06/08 07:58:29;;;;;;;1.83;1.73;;;;;;;;;;5089848;27;20503;-48
2022/06/08 08:00:57;;;;;;;2.33;1.87;;;;;;;;;;5104388;27;20191;-47
2022/06/08 08:03:23;;;;;;;6.77;1.83;;;;;;;;;;5107651;27;20281;-48
2022/06/08 08:05:49;;;;;;;3.47;1.80;;;;;;;;;;5108880;28;20178;-48
2022/06/08 08:08:17;;;;;;;4.30;2.30;;;;;;;;;;5107098;28;20172;-48
2022/06/08 08:10:43;;;;;;;2.10;1.90;;;;;;;;;;5107265;28;20179;-49
2022/06/08 08:13:09;;;;;;;1.70;1.60;;;;;;;;;;5106681;28;20644;-47
2022/06/08 08:15:36;;;;;;;2.63;2.10;;;;;;;;;;5109271;28;20224;-47
2022/06/08 08:18:02;;;;;;;2.07;1.90;;;;;;;;;;5109315;28;20680;-48
2022/06/08 08:20:29;;;;;;;2.00;1.90;;;;;;;;;;5090881;28;20652;-47
2022/06/08 08:22:55;;;;;;;2.87;2.00;;;;;;;;;;5089992;28;20175;-47
2022/06/08 08:25:22;;;;;;;2.03;1.90;;;;;;;;;;5105836;28;20250;-47
2022/06/08 08:27:49;;;;;;;2.47;1.80;;;;;;;;;;5105796;28;20734;-47
2022/06/08 08:30:16;;;;;;;2.07;1.90;;;;;;;;;;5107231;28;20245;-49
2022/06/08 08:32:42;;;;;;;2.50;2.30;;;;;;;;;;5108533;28;20270;-48
2022/06/08 08:35:08;;;;;;;2.00;1.90;;;;;;;;;;5108877;28;20178;-47
2022/06/08 08:37:35;;;;;;;2.30;2.10;;;;;;;;;;5104596;28;20175;-46
2022/06/08 08:40:01;;;;;;;3.57;2.00;;;;;;;;;;5106740;28;20213;-49
2022/06/08 08:42:28;;;;;;;2.27;2.07;;;;;;;;;;5106281;28;20171;-47
2022/06/08 08:44:59;;;;;;;2.50;2.30;;;;;;;;;;5106148;28;20179;-48
2022/06/08 08:47:43;;;;;;;2.53;2.30;;;;;;;;;;5101907;28;20206;-47
2022/06/08 08:50:15;;;;;;;2.97;2.57;;;;;;;;;;5104146;28;20282;-47
2022/06/08 08:52:59;;;;;;;3.07;2.77;;;;;;;;;;5113486;27;20590;-47
2022/06/08 08:55:26;;;;;;;4.30;2.57;;;;;;;;;;5106773;28;20182;-48
2022/06/08 08:57:57;;;;;;;3.00;2.40;;;;;;;;;;5104234;28;20187;-47
2022/06/08 09:00:38;;;;;;;3.00;2.50;;;;;;;;;;5104232;28;20259;-46
2022/06/08 09:03:30;;;;;;;2.97;2.30;;;;;;;;;;5101686;28;20175;-46
2022/06/08 09:06:01;;;;;;;3.07;2.33;;;;;;;;;;5104286;28;20665;-47
2022/06/08 09:08:28;;;;;;;2.30;2.10;;;;;;;;;;5108844;27;20178;-47
2022/06/08 09:10:57;;;;;;;3.63;2.27;;;;;;;;;;5106549;28;20420;-47
2022/06/08 09:13:25;;;;;;;3.87;2.60;;;;;;;;;;5106622;28;20178;-46
2022/06/08 09:15:56;;;;;;;3.00;2.40;;;;;;;;;;5088382;28;20183;-46
2022/06/08 09:18:22;;;;;;;2.60;2.40;;;;;;;;;;5100068;28;20505;-47
2022/06/08 09:20:48;;;;;;;3.40;2.37;;;;;;;;;;5085618;28;20526;-47
2022/06/08 09:23:33;;;;;;;4.07;2.80;;;;;;;;;;5107231;27;20682;-47
2022/06/08 09:26:10;;;;;;;3.20;2.50;;;;;;;;;;5096689;28;20175;-46
2022/06/08 09:28:36;;;;;;;2.70;2.47;;;;;;;;;;5103870;27;20226;-47
2022/06/08 09:31:02;;;;;;;2.77;2.57;;;;;;;;;;5110063;27;20332;-47
2022/06/08 09:33:36;;;;;;;4.77;2.60;;;;;;;;;;5106623;27;20189;-47
2022/06/08 09:36:07;;;;;;;2.80;2.50;;;;;;;;;;5108191;27;20709;-47
2022/06/08 09:38:37;;;;;;;4.47;2.67;;;;;;;;;;5104457;28;20587;-47
2022/06/08 09:41:09;;;;;;;2.93;2.00;;;;;;;;;;5091661;27;20198;-46
2022/06/08 09:43:44;;;;;;;2.53;2.30;;;;;;;;;;5105299;28;20180;-46
2022/06/08 09:46:19;;;;;;;4.77;2.53;;;;;;;;;;5105480;28;20177;-46
2022/06/08 09:51:49;;;;;;;5.33;2.37;;;;;;;;;;5110180;28;20241;-47
2022/06/08 09:54:24;;;;;;;2.17;2.00;;;;;;;;;;5099840;28;20213;-48
2022/06/08 09:56:59;;;;;;;2.43;2.17;;;;;;;;;;5102445;28;20174;-46
2022/06/08 09:59:25;;;;;;;3.20;2.37;;;;;;;;;;5103569;28;20172;-47
2022/06/08 10:02:10;;;;;;;2.60;2.00;;;;;;;;;;5108242;28;20669;-46
2022/06/08 10:04:51;;;;;;;2.97;2.67;;;;;;;;;;5106216;28;20186;-47
2022/06/08 10:07:20;;;;;;;2.70;2.20;;;;;;;;;;5102305;28;20277;-47
2022/06/08 10:09:58;;;;;;;3.53;2.40;;;;;;;;;;5098318;28;20478;-48
2022/06/08 10:12:33;;;;;;;3.20;2.33;;;;;;;;;;5086151;28;20175;-46
2022/06/08 10:15:01;;;;;;;3.20;2.50;;;;;;;;;;5107086;28;20640;-48
2022/06/08 10:17:31;;;;;;;3.53;2.27;;;;;;;;;;5106354;28;20191;-49
2022/06/08 10:20:12;;;;;;;3.20;2.10;;;;;;;;;;5104961;28;20186;-48
2022/06/08 10:22:43;;;;;;;2.27;2.07;;;;;;;;;;5105506;28;20652;-48
2022/06/08 10:25:15;;;;;;;3.63;2.73;;;;;;;;;;5105919;28;20265;-48
2022/06/08 10:27:47;;;;;;;5.60;2.30;;;;;;;;;;5106114;28;20179;-47
2022/06/08 10:30:13;;;;;;;4.27;2.50;;;;;;;;;;5103700;28;20242;-49
2022/06/08 10:32:44;;;;;;;3.70;2.50;;;;;;;;;;5107863;28;20185;-48
2022/06/08 10:35:18;;;;;;;3.53;2.00;;;;;;;;;;5088359;28;20589;-49
2022/06/08 10:37:44;;;;;;;3.03;2.13;;;;;;;;;;5103834;28;20179;-50
2022/06/08 10:40:16;;;;;;;4.17;2.20;;;;;;;;;;5101718;28;20297;-50
2022/06/08 10:42:43;;;;;;;5.57;2.43;;;;;;;;;;5101520;28;20618;-49
2022/06/08 10:45:24;;;;;;;3.30;2.70;;;;;;;;;;5103429;28;20183;-48
2022/06/08 10:48:09;;;;;;;6.33;2.60;;;;;;;;;;5108202;28;20176;-49
2022/06/08 10:50:38;;;;;;;3.50;2.73;;;;;;;;;;5114813;27;20192;-50
2022/06/08 10:56:26;;;;;;;3.73;2.53;;;;;;;;;;5109434;27;20310;-49
2022/06/08 10:59:04;;;;;;;6.23;3.30;;;;;;;;;;5107237;28;20566;-47
2022/06/08 11:01:56;;;;;;;3.83;2.73;;;;;;;;;;5112881;27;20217;-48
2022/06/08 11:04:32;;;;;;;5.00;3.13;;;;;;;;;;5091341;28;20198;-51
2022/06/08 11:07:05;;;;;;;4.50;3.00;;;;;;;;;;5111616;27;20305;-50
2022/06/08 11:09:34;;;;;;;4.43;3.23;;;;;;;;;;5110390;27;20177;-49
2022/06/08 11:12:16;;;;;;;5.20;3.30;;;;;;;;;;5114325;27;20187;-51
2022/06/08 11:14:56;;;;;;;4.57;2.63;;;;;;;;;;5108632;27;20191;-49
2022/06/08 11:17:33;;;;;;;6.27;3.00;;;;;;;;;;5110759;27;20282;-51
2022/06/08 11:20:05;;;;;;;3.87;2.83;;;;;;;;;;5108397;27;20183;-49
2022/06/08 11:22:34;;;;;;;2.83;2.40;;;;;;;;;;5110653;28;20522;-48
2022/06/08 11:25:02;;;;;;;4.33;2.97;;;;;;;;;;5105552;27;20177;-49
2022/06/08 11:27:30;;;;;;;7.43;3.50;;;;;;;;;;5107336;28;20200;-50
2022/06/08 11:30:00;;;;;;;2.83;2.60;;;;;;;;;;5084699;28;20240;-47
2022/06/08 11:32:32;;;;;;;4.83;3.03;;;;;;;;;;5082434;28;20560;-49
2022/06/08 11:35:14;;;;;;;6.73;2.80;;;;;;;;;;5080188;28;20631;-49
2022/06/08 11:37:48;;;;;;;3.40;2.67;;;;;;;;;;5066276;28;20522;-48
2022/06/08 11:40:25;;;;;;;3.23;2.60;;;;;;;;;;5084811;28;20293;-50
2022/06/08 11:42:56;;;;;;;3.83;2.67;;;;;;;;;;5089307;28;20173;-47
2022/06/08 11:45:24;;;;;;;4.87;3.00;;;;;;;;;;5082070;28;20197;-50
2022/06/08 11:48:09;;;;;;;7.33;3.43;;;;;;;;;;5082007;28;20180;-49
2022/06/08 11:50:47;;;;;;;6.37;2.97;;;;;;;;;;5097504;28;20704;-49
2022/06/08 11:53:20;;;;;;;6.53;3.33;;;;;;;;;;5068834;28;20180;-48
2022/06/08 11:55:54;;;;;;;3.90;2.90;;;;;;;;;;5081221;28;20684;-48
2022/06/08 11:58:28;;;;;;;4.30;2.83;;;;;;;;;;5078586;28;20187;-49
2022/06/08 12:01:01;;;;;;;4.73;3.33;;;;;;;;;;5085695;28;20231;-47
2022/06/08 12:03:34;;;;;;;4.67;3.20;;;;;;;;;;5084234;28;20495;-48
2022/06/08 12:06:03;;;;;;;6.43;2.83;;;;;;;;;;5087359;28;20236;-47
2022/06/08 12:08:29;;;;;;;5.97;3.27;;;;;;;;;;5088755;28;20516;-49
2022/06/08 12:10:55;;;;;;;4.50;2.80;;;;;;;;;;5097116;28;20198;-47
2022/06/08 12:13:23;;;;;;;4.63;2.90;;;;;;;;;;5083547;28;20591;-48
2022/06/08 12:15:51;;;;;;;2.93;2.63;;;;;;;;;;5084429;28;20229;-48
2022/06/08 12:18:23;;;;;;;3.67;2.43;;;;;;;;;;5086792;28;20180;-47
2022/06/08 12:21:01;;;;;;;4.30;2.90;;;;;;;;;;5075204;28;20203;-49
2022/06/08 12:23:40;;;;;;;5.87;2.50;;;;;;;;;;5089255;28;20254;-47
2022/06/08 12:26:21;;;;;;;4.27;2.60;;;;;;;;;;5088053;28;20592;-47
2022/06/08 12:28:50;;;;;;;4.83;3.07;;;;;;;;;;5079728;28;20308;-48
2022/06/08 12:31:27;;;;;;;3.47;2.83;;;;;;;;;;5075974;28;20651;-48
2022/06/08 12:33:53;;;;;;;6.03;3.27;;;;;;;;;;5056322;28;20188;-48
2022/06/08 12:36:24;;;;;;;6.63;3.07;;;;;;;;;;5068396;28;20207;-48
2022/06/08 12:39:09;;;;;;;8.73;2.93;;;;;;;;;;5053921;28;20173;-47
2022/06/08 12:41:52;;;;;;;4.40;2.80;;;;;;;;;;5067694;28;20406;-46
2022/06/08 12:44:23;;;;;;;4.80;2.80;;;;;;;;;;5047571;28;20631;-47
2022/06/08 12:47:00;;;;;;;4.10;2.77;;;;;;;;;;5066355;28;20290;-48
2022/06/08 12:49:27;;;;;;;4.07;2.47;;;;;;;;;;5065043;28;20607;-48
2022/06/08 12:51:55;;;;;;;5.03;2.77;;;;;;;;;;5068934;28;20201;-49
2022/06/08 12:54:32;;;;;;;4.73;2.90;;;;;;;;;;5064979;28;20180;-47
2022/06/08 12:57:13;;;;;;;4.70;2.83;;;;;;;;;;5066247;28;20251;-48
2022/06/08 12:59:39;;;;;;;8.20;3.10;;;;;;;;;;5066065;28;20717;-47
2022/06/08 13:02:16;;;;;;;6.07;3.33;;;;;;;;;;5050663;28;20200;-49
2022/06/08 13:04:43;;;;;;;4.80;2.57;;;;;;;;;;5048425;28;20761;-45
2022/06/08 13:07:20;;;;;;;5.50;2.73;;;;;;;;;;5071086;28;20192;-47
2022/06/08 13:09:48;;;;;;;4.17;3.17;;;;;;;;;;5065852;28;20781;-47
2022/06/08 13:12:17;;;;;;;5.70;2.97;;;;;;;;;;5065625;28;20537;-46
2022/06/08 13:14:43;;;;;;;4.07;2.60;;;;;;;;;;5064076;28;20181;-47
2022/06/08 13:17:11;;;;;;;9.40;3.03;;;;;;;;;;5061618;28;20180;-47
2022/06/08 13:19:37;;;;;;;5.27;2.93;;;;;;;;;;5053189;28;20559;-47
2022/06/08 13:22:03;;;;;;;3.67;2.70;;;;;;;;;;5057550;28;20242;-49
2022/06/08 13:24:29;;;;;;;4.23;2.90;;;;;;;;;;5062690;28;20243;-48
2022/06/08 13:26:55;;;;;;;4.73;2.87;;;;;;;;;;5070390;28;20181;-49
2022/06/08 13:29:21;;;;;;;4.60;2.70;;;;;;;;;;5078649;27;20531;-47
2022/06/08 13:31:48;;;;;;;5.17;2.63;;;;;;;;;;5105147;27;20183;-49
2022/06/08 13:34:14;;;;;;;4.33;2.60;;;;;;;;;;5086909;28;20217;-47
2022/06/08 13:36:49;;;;;;;3.53;2.57;;;;;;;;;;5106703;28;20178;-49
2022/06/08 13:39:22;;;;;;;5.13;2.40;;;;;;;;;;5104773;28;20182;-48
2022/06/08 13:41:49;;;;;;;2.63;2.27;;;;;;;;;;5098332;28;20318;-48
2022/06/08 13:44:26;;;;;;;4.47;2.23;;;;;;;;;;5101298;28;20175;-48
2022/06/08 13:47:05;;;;;;;4.97;2.37;;;;;;;;;;5105978;28;20288;-49
2022/06/08 13:49:33;;;;;;;3.63;2.40;;;;;;;;;;5087788;28;20167;-48
2022/06/08 13:51:59;;;;;;;4.43;3.17;;;;;;;;;;5086520;28;20259;-49
2022/06/08 13:54:28;;;;;;;2.67;2.43;;;;;;;;;;5104444;28;20677;-49
2022/06/08 13:56:54;;;;;;;3.70;2.40;;;;;;;;;;5084724;28;20218;-48
2022/06/08 13:59:22;;;;;;;4.20;3.23;;;;;;;;;;5099702;28;20182;-47
2022/06/08 14:01:50;;;;;;;4.50;2.83;;;;;;;;;;5084084;28;20339;-49
2022/06/08 14:04:17;;;;;;;4.03;3.63;;;;;;;;;;5104789;28;20185;-53
2022/06/08 14:14:59;;;;;;;4.17;3.03;;;;;;;;;;5107290;28;20251;-51
2022/06/08 14:17:25;;;;;;;5.03;2.53;;;;;;;;;;5104106;28;20271;-53
2022/06/08 14:19:57;;;;;;;5.00;2.27;;;;;;;;;;5084272;28;20277;-53
2022/06/08 14:22:25;;;;;;;3.93;2.67;;;;;;;;;;5100946;28;20625;-54
2022/06/08 14:24:54;;;;;;;3.77;2.30;;;;;;;;;;5085376;28;20511;-54
2022/06/08 14:27:21;;;;;;;4.13;2.60;;;;;;;;;;5108610;27;20192;-59
2022/06/08 14:29:48;;;;;;;4.20;2.43;;;;;;;;;;5083072;28;20230;-53
2022/06/08 14:32:23;;;;;;;3.77;2.10;;;;;;;;;;5065495;28;20504;-53
2022/06/08 14:34:49;;;;;;;4.13;2.77;;;;;;;;;;5081336;28;20728;-55
2022/06/08 14:37:17;;;;;;;3.70;2.17;;;;;;;;;;5082057;28;20442;-54
2022/06/08 14:39:44;;;;;;;2.37;1.93;;;;;;;;;;5082530;28;20665;-54
2022/06/08 14:42:10;;;;;;;2.93;2.20;;;;;;;;;;5087096;28;20257;-54
2022/06/08 14:44:37;;;;;;;3.13;2.40;;;;;;;;;;5090686;28;20175;-54
2022/06/08 14:47:07;;;;;;;2.33;1.90;;;;;;;;;;5086542;28;20197;-52
2022/06/08 14:49:35;;;;;;;3.53;2.43;;;;;;;;;;5066767;28;20304;-54
2022/06/08 14:52:03;;;;;;;3.50;2.40;;;;;;;;;;5078463;28;20235;-54
2022/06/08 14:54:32;;;;;;;3.33;1.73;;;;;;;;;;5084615;28;20181;-51
2022/06/08 14:57:13;;;;;;;2.50;1.90;;;;;;;;;;5079136;28;20193;-54
2022/06/08 14:59:41;;;;;;;2.17;1.80;;;;;;;;;;5093953;28;20504;-55
2022/06/08 15:02:16;;;;;;;3.97;2.27;;;;;;;;;;5085377;28;20200;-53
2022/06/08 15:04:42;;;;;;;3.43;2.23;;;;;;;;;;5078062;28;20183;-53
2022/06/08 15:07:08;;;;;;;2.90;2.10;;;;;;;;;;5087903;28;20657;-54
2022/06/08 15:09:35;;;;;;;2.93;2.37;;;;;;;;;;5084158;28;20656;-55
2022/06/08 15:12:01;;;;;;;2.53;2.30;;;;;;;;;;5068836;28;20280;-53
2022/06/08 15:14:34;;;;;;;3.23;1.70;;;;;;;;;;5085654;28;20183;-55
2022/06/08 15:17:01;;;;;;;1.97;1.80;;;;;;;;;;5080806;28;20180;-52
2022/06/08 15:19:29;;;;;;;2.13;1.93;;;;;;;;;;5076957;28;20179;-55